createdAt,value
2023-06-09T00:02:19.835Z,6.50
2023-06-09T00:04:49.450Z,5.80
2023-06-09T00:07:17.861Z,5.70
2023-06-09T00:09:45.880Z,7.30
2023-06-09T00:12:13.925Z,6.80
2023-06-09T00:14:43.120Z,7.20
2023-06-09T00:17:11.329Z,7.10
2023-06-09T00:19:43.363Z,6.50
2023-06-09T00:22:15.349Z,6.60
2023-06-09T00:24:45.200Z,7.50
2023-06-09T00:27:13.423Z,6.60
2023-06-09T00:29:41.506Z,6.60
2023-06-09T00:32:10.085Z,7.30
2023-06-09T00:34:38.843Z,6.60
2023-06-09T00:37:06.982Z,7.20
2023-06-09T00:39:34.997Z,7.00
2023-06-09T00:42:03.033Z,6.80
2023-06-09T00:44:31.063Z,6.80
2023-06-09T00:46:59.192Z,7.60
2023-06-09T00:49:27.420Z,7.50
2023-06-09T00:51:55.434Z,7.10
2023-06-09T00:54:23.504Z,7.00
2023-06-09T00:56:51.560Z,6.70
2023-06-09T00:59:19.706Z,6.90
2023-06-09T01:01:48.272Z,6.30
2023-06-09T01:04:16.206Z,6.90
2023-06-09T01:07:03.204Z,7.20
2023-06-09T01:09:36.033Z,6.50
2023-06-09T01:12:17.076Z,6.80
2023-06-09T01:15:07.274Z,6.90
2023-06-09T01:17:35.981Z,6.40
2023-06-09T01:20:05.120Z,7.30
2023-06-09T01:22:52.010Z,6.90
2023-06-09T01:25:36.082Z,6.50
2023-06-09T01:28:24.450Z,7.20
2023-06-09T01:30:53.133Z,7.20
2023-06-09T01:33:24.327Z,6.90
2023-06-09T01:35:53.395Z,7.10
2023-06-09T01:38:23.112Z,7.10
2023-06-09T01:40:51.137Z,6.90
2023-06-09T01:43:20.210Z,6.70
2023-06-09T01:45:48.456Z,7.20
2023-06-09T01:48:18.975Z,6.90
2023-06-09T01:50:55.424Z,6.90
2023-06-09T01:53:43.067Z,7.00
2023-06-09T01:56:28.996Z,7.40
2023-06-09T01:58:58.928Z,7.80
2023-06-09T02:01:27.413Z,8.00
2023-06-09T02:03:56.038Z,7.70
2023-06-09T02:06:24.164Z,8.00
2023-06-09T02:08:52.318Z,8.10
2023-06-09T02:11:20.740Z,6.60
2023-06-09T02:13:55.683Z,7.30
2023-06-09T02:16:24.046Z,7.80
2023-06-09T02:18:53.534Z,7.70
2023-06-09T02:21:21.713Z,7.60
2023-06-09T02:23:49.853Z,7.70
2023-06-09T02:26:18.571Z,7.70
2023-06-09T02:28:48.659Z,8.10
2023-06-09T02:31:17.295Z,8.40
2023-06-09T02:33:45.471Z,8.00
2023-06-09T02:36:16.854Z,7.10
2023-06-09T02:38:44.900Z,7.80
2023-06-09T02:41:13.221Z,8.90
2023-06-09T02:43:41.241Z,8.20
2023-06-09T02:46:10.497Z,7.40
2023-06-09T02:48:38.813Z,7.90
2023-06-09T02:51:08.086Z,7.80
2023-06-09T02:53:36.216Z,7.40
2023-06-09T02:56:04.821Z,8.20
2023-06-09T02:58:36.189Z,8.30
2023-06-09T03:01:04.253Z,7.90
2023-06-09T03:03:32.430Z,7.60
2023-06-09T03:06:00.580Z,8.10
2023-06-09T03:08:29.553Z,7.90
2023-06-09T03:10:57.624Z,8.30
2023-06-09T03:13:25.806Z,8.10
2023-06-09T03:15:54.650Z,8.00
2023-06-09T03:18:23.155Z,8.00
2023-06-09T03:20:52.110Z,8.50
2023-06-09T03:23:22.103Z,10.20
2023-06-09T03:25:53.952Z,9.70
2023-06-09T03:28:23.816Z,9.00
2023-06-09T03:30:51.899Z,8.20
2023-06-09T03:33:20.771Z,8.80
2023-06-09T03:35:50.261Z,8.60
2023-06-09T03:38:19.176Z,8.80
2023-06-09T03:40:47.277Z,9.50
2023-06-09T03:43:15.649Z,8.90
2023-06-09T03:45:43.790Z,9.20
2023-06-09T03:48:13.115Z,9.20
2023-06-09T03:50:41.839Z,9.60
2023-06-09T03:53:11.085Z,8.70
2023-06-09T03:55:40.584Z,8.80
2023-06-09T03:58:11.419Z,8.30
2023-06-09T04:00:40.373Z,8.60
2023-06-09T04:03:08.951Z,9.20
2023-06-09T04:05:37.295Z,8.70
2023-06-09T04:08:05.898Z,9.20
2023-06-09T04:10:33.900Z,9.30
2023-06-09T04:13:01.973Z,12.20
2023-06-09T04:15:31.017Z,10.30
2023-06-09T04:17:59.350Z,13.10
2023-06-09T04:20:30.992Z,13.30
2023-06-09T04:22:59.283Z,12.50
2023-06-09T04:25:30.081Z,11.50
2023-06-09T04:28:04.533Z,11.80
2023-06-09T04:30:35.791Z,11.70
2023-06-09T04:33:08.920Z,11.80
2023-06-09T04:35:37.437Z,11.70
2023-06-09T04:38:06.125Z,12.00
2023-06-09T04:40:34.624Z,12.10
2023-06-09T04:43:03.746Z,12.10
2023-06-09T04:45:36.930Z,12.40
2023-06-09T04:48:23.427Z,11.10
2023-06-09T04:50:51.491Z,11.20
2023-06-09T04:53:21.146Z,10.90
2023-06-09T04:55:55.342Z,11.10
2023-06-09T04:58:25.098Z,11.70
2023-06-09T05:00:54.516Z,11.50
2023-06-09T05:03:24.872Z,11.30
2023-06-09T05:05:53.685Z,10.10
2023-06-09T05:08:22.800Z,9.90
2023-06-09T05:10:51.277Z,10.20
2023-06-09T05:13:19.891Z,9.90
2023-06-09T05:15:48.591Z,10.20
2023-06-09T05:18:19.080Z,10.20
2023-06-09T05:20:47.700Z,10.50
2023-06-09T05:23:18.983Z,10.20
2023-06-09T05:25:47.281Z,10.40
2023-06-09T05:28:15.678Z,11.20
2023-06-09T05:30:43.686Z,10.30
2023-06-09T05:33:12.168Z,9.30
2023-06-09T05:35:40.310Z,9.50
2023-06-09T05:38:09.057Z,10.20
2023-06-09T05:40:37.075Z,8.90
2023-06-09T05:43:05.204Z,9.10
2023-06-09T05:45:33.343Z,9.80
2023-06-09T05:48:01.497Z,8.80
2023-06-09T05:50:29.888Z,8.80
2023-06-09T05:52:57.829Z,8.50
2023-06-09T05:55:27.168Z,8.70
2023-06-09T05:57:55.318Z,7.80
2023-06-09T06:00:30.415Z,8.20
2023-06-09T06:03:04.732Z,8.00
2023-06-09T06:05:33.213Z,7.60
2023-06-09T06:08:02.307Z,7.90
2023-06-09T06:10:30.585Z,8.40
2023-06-09T06:13:05.161Z,8.00
2023-06-09T06:15:33.213Z,7.70
2023-06-09T06:18:01.270Z,7.40
2023-06-09T06:20:29.592Z,7.80
2023-06-09T06:22:58.686Z,8.70
2023-06-09T06:25:26.834Z,8.90
2023-06-09T06:27:54.822Z,9.00
2023-06-09T06:30:23.008Z,8.20
2023-06-09T06:32:51.977Z,9.10
2023-06-09T06:35:29.155Z,7.80
2023-06-09T06:37:57.717Z,8.10
2023-06-09T06:40:25.974Z,7.30
2023-06-09T06:42:54.177Z,7.60
2023-06-09T06:45:29.444Z,6.70
2023-06-09T06:47:57.682Z,6.40
2023-06-09T06:50:26.908Z,6.50
2023-06-09T06:52:55.753Z,5.80
2023-06-09T06:55:23.920Z,5.70
2023-06-09T06:57:51.986Z,5.80
2023-06-09T07:00:20.514Z,5.90
2023-06-09T07:02:48.981Z,5.80
2023-06-09T07:05:17.354Z,5.90
2023-06-09T07:07:45.421Z,4.70
2023-06-09T07:10:14.828Z,4.80
2023-06-09T07:12:43.031Z,5.80
2023-06-09T07:15:11.457Z,4.80
2023-06-09T07:17:40.169Z,4.90
2023-06-09T07:20:10.078Z,5.10
2023-06-09T07:22:42.633Z,5.80
2023-06-09T07:25:11.019Z,5.90
2023-06-09T07:27:39.078Z,6.00
2023-06-09T07:30:09.306Z,5.90
2023-06-09T07:32:38.324Z,5.50
2023-06-09T07:35:06.706Z,5.10
2023-06-09T07:37:38.058Z,6.00
2023-06-09T07:40:19.285Z,6.30
2023-06-09T07:42:52.205Z,5.50
2023-06-09T07:45:20.405Z,6.00
2023-06-09T07:47:48.844Z,6.10
2023-06-09T07:50:19.177Z,5.80
2023-06-09T07:52:47.361Z,5.60
2023-06-09T07:55:16.224Z,5.60
2023-06-09T07:57:45.159Z,6.00
2023-06-09T08:00:15.252Z,5.20
2023-06-09T08:02:44.726Z,4.90
2023-06-09T08:05:18.351Z,4.10
2023-06-09T08:07:46.543Z,4.30
2023-06-09T08:10:14.552Z,4.80
2023-06-09T08:12:42.898Z,5.40
2023-06-09T08:15:11.478Z,5.70
2023-06-09T08:17:40.489Z,5.20
2023-06-09T08:20:09.390Z,4.90
2023-06-09T08:22:38.072Z,5.10
2023-06-09T08:25:06.893Z,4.40
2023-06-09T08:27:35.152Z,4.70
2023-06-09T08:30:04.975Z,4.10
2023-06-09T08:32:34.903Z,4.40
2023-06-09T08:35:09.432Z,4.40
2023-06-09T08:37:38.258Z,5.20
2023-06-09T08:40:10.427Z,4.90
2023-06-09T08:42:39.916Z,4.60
2023-06-09T08:45:09.650Z,4.90
2023-06-09T08:47:38.433Z,5.30
2023-06-09T08:50:08.433Z,4.60
2023-06-09T08:52:37.936Z,5.80
2023-06-09T08:55:06.939Z,6.00
2023-06-09T08:57:36.540Z,6.70
2023-06-09T09:00:10.147Z,5.90
2023-06-09T09:02:39.228Z,5.70
2023-06-09T09:05:07.691Z,5.20
2023-06-09T09:07:36.233Z,5.00
2023-06-09T09:10:04.510Z,5.60
2023-06-09T09:12:51.821Z,5.60
2023-06-09T09:15:20.026Z,5.80
2023-06-09T09:17:48.670Z,4.30
2023-06-09T09:20:17.384Z,5.60
2023-06-09T09:22:46.228Z,4.30
2023-06-09T09:25:24.975Z,5.30
2023-06-09T09:28:12.766Z,4.70
2023-06-09T09:30:57.248Z,4.60
2023-06-09T09:33:28.446Z,4.30
2023-06-09T09:35:58.281Z,4.80
2023-06-09T09:38:29.002Z,4.60
2023-06-09T09:40:58.290Z,4.00
2023-06-09T09:43:27.633Z,5.20
2023-06-09T09:45:58.026Z,4.70
2023-06-09T09:48:26.706Z,4.20
2023-06-09T09:50:56.444Z,4.70
2023-06-09T09:53:25.124Z,4.80
2023-06-09T09:55:55.581Z,4.30
2023-06-09T09:58:36.600Z,3.90
2023-06-09T10:01:07.842Z,4.30
2023-06-09T10:03:39.233Z,4.20
2023-06-09T10:06:08.513Z,4.30
2023-06-09T10:08:36.813Z,4.40
2023-06-09T10:11:04.855Z,3.80
2023-06-09T10:13:32.903Z,4.30
2023-06-09T10:16:01.052Z,4.50
2023-06-09T10:18:29.154Z,4.60
2023-06-09T10:20:57.223Z,5.10
2023-06-09T10:23:26.408Z,4.20
2023-06-09T10:25:54.465Z,5.00
2023-06-09T10:28:23.083Z,4.50
2023-06-09T10:30:52.185Z,3.50
2023-06-09T10:33:24.767Z,3.80
2023-06-09T10:35:57.743Z,4.40
2023-06-09T10:38:29.828Z,4.40
2023-06-09T10:41:14.411Z,4.80
2023-06-09T10:44:07.196Z,4.20
2023-06-09T10:46:45.574Z,4.10
2023-06-09T10:49:26.909Z,4.00
2023-06-09T10:51:55.675Z,4.20
2023-06-09T10:54:25.162Z,4.30
2023-06-09T10:57:01.996Z,4.50
2023-06-09T10:59:31.622Z,3.60
2023-06-09T11:02:09.816Z,4.00
2023-06-09T11:04:46.921Z,4.00
2023-06-09T11:07:26.793Z,4.90
2023-06-09T11:09:57.848Z,5.00
2023-06-09T11:12:26.004Z,4.60
2023-06-09T11:15:00.667Z,4.90
2023-06-09T11:17:42.309Z,3.90
2023-06-09T11:20:11.197Z,3.70
2023-06-09T11:22:43.352Z,4.40
2023-06-09T11:25:21.325Z,4.10
2023-06-09T11:27:50.149Z,3.50
2023-06-09T11:30:19.968Z,4.00
2023-06-09T11:32:48.378Z,4.40
2023-06-09T11:35:29.331Z,3.60
2023-06-09T11:37:58.751Z,4.20
2023-06-09T11:40:27.811Z,3.40
2023-06-09T11:42:55.965Z,3.70
2023-06-09T11:45:24.592Z,4.20
2023-06-09T11:48:01.210Z,3.80
2023-06-09T11:50:44.100Z,4.10
2023-06-09T11:53:19.169Z,4.40
2023-06-09T11:55:48.058Z,3.60
2023-06-09T11:58:17.011Z,3.40
2023-06-09T12:00:46.001Z,3.80
2023-06-09T12:03:14.124Z,4.30
2023-06-09T12:05:47.995Z,3.50
2023-06-09T12:08:16.243Z,3.70
2023-06-09T12:10:44.243Z,3.90
2023-06-09T12:13:12.630Z,3.70
2023-06-09T12:15:42.626Z,3.50
2023-06-09T12:18:10.641Z,4.30
2023-06-09T12:20:39.025Z,3.50
2023-06-09T12:23:14.856Z,3.90
2023-06-09T12:25:44.061Z,4.10
2023-06-09T12:28:20.687Z,4.00
2023-06-09T12:30:50.012Z,3.80
2023-06-09T12:33:25.765Z,3.90
2023-06-09T12:36:04.562Z,4.00
2023-06-09T12:38:36.696Z,3.70
2023-06-09T12:41:11.876Z,4.00
2023-06-09T12:43:59.398Z,3.40
2023-06-09T12:46:30.704Z,3.90
2023-06-09T12:49:04.438Z,3.70
2023-06-09T12:51:33.382Z,3.90
2023-06-09T12:54:01.397Z,3.90
2023-06-09T12:56:29.593Z,3.80
2023-06-09T12:58:57.684Z,3.40
2023-06-09T13:01:26.848Z,3.50
2023-06-09T13:03:55.434Z,3.80
2023-06-09T13:06:23.478Z,3.60
2023-06-09T13:08:52.326Z,3.50
2023-06-09T13:11:20.407Z,4.10
2023-06-09T13:13:48.397Z,4.30
2023-06-09T13:16:16.483Z,3.60
2023-06-09T13:18:44.564Z,3.80
2023-06-09T13:21:12.568Z,4.00
2023-06-09T13:23:40.642Z,4.50
2023-06-09T13:26:08.667Z,4.10
2023-06-09T13:28:36.637Z,4.30
2023-06-09T13:31:04.638Z,4.20
2023-06-09T13:33:32.653Z,3.70
2023-06-09T13:36:02.282Z,3.80
2023-06-09T13:38:31.903Z,4.00
2023-06-09T13:41:00.037Z,4.30
2023-06-09T13:43:28.280Z,4.00
2023-06-09T13:45:56.328Z,3.60
2023-06-09T13:48:24.460Z,3.70
2023-06-09T13:50:54.349Z,3.60
2023-06-09T13:53:23.402Z,3.60
2023-06-09T13:55:51.512Z,3.80
2023-06-09T13:58:19.567Z,4.20
2023-06-09T14:00:47.742Z,3.80
2023-06-09T14:03:16.254Z,4.30
2023-06-09T14:05:44.756Z,4.10
2023-06-09T14:08:12.819Z,3.40
2023-06-09T14:10:41.603Z,3.60
2023-06-09T14:13:09.858Z,3.90
2023-06-09T14:15:37.940Z,3.80
2023-06-09T14:18:06.232Z,4.20
2023-06-09T14:20:34.454Z,3.70
2023-06-09T14:23:06.069Z,4.20
2023-06-09T14:25:34.133Z,4.10
2023-06-09T14:28:02.302Z,4.30
2023-06-09T14:30:30.681Z,4.50
2023-06-09T14:32:58.965Z,5.00
2023-06-09T14:35:28.038Z,4.60
2023-06-09T14:38:01.005Z,4.90
2023-06-09T14:40:36.820Z,5.10
2023-06-09T14:43:08.004Z,5.70
2023-06-09T14:45:36.492Z,5.10
2023-06-09T14:48:07.237Z,5.40
2023-06-09T14:50:39.283Z,4.80
2023-06-09T14:53:07.664Z,4.40
2023-06-09T14:55:48.809Z,5.00
2023-06-09T14:58:18.256Z,5.20
2023-06-09T15:00:46.749Z,5.00
2023-06-09T15:03:17.771Z,4.90
2023-06-09T15:05:46.937Z,5.00
2023-06-09T15:08:14.934Z,4.80
2023-06-09T15:10:44.456Z,5.00
2023-06-09T15:13:14.201Z,5.00
2023-06-09T15:15:42.329Z,4.90
2023-06-09T15:18:10.820Z,5.80
2023-06-09T15:20:42.432Z,5.70
2023-06-09T15:23:11.545Z,5.20
2023-06-09T15:25:41.663Z,5.60
2023-06-09T15:28:11.426Z,4.70
2023-06-09T15:30:41.125Z,5.40
2023-06-09T15:33:19.906Z,5.30
2023-06-09T15:35:52.165Z,4.40
2023-06-09T15:38:21.783Z,5.70
2023-06-09T15:40:52.109Z,5.60
2023-06-09T15:43:21.289Z,5.10
2023-06-09T15:45:53.635Z,5.10
2023-06-09T15:48:22.770Z,5.80
2023-06-09T15:50:51.217Z,5.40
2023-06-09T15:53:22.689Z,5.10
2023-06-09T15:55:51.654Z,4.80
2023-06-09T15:58:20.168Z,5.80
2023-06-09T16:00:50.363Z,5.70
2023-06-09T16:03:20.050Z,5.60
2023-06-09T16:05:50.170Z,6.20
2023-06-09T16:08:19.998Z,5.20
2023-06-09T16:10:52.461Z,5.90
2023-06-09T16:13:22.257Z,5.90
2023-06-09T16:15:51.997Z,6.10
2023-06-09T16:18:23.194Z,5.40
2023-06-09T16:20:52.123Z,5.00
2023-06-09T16:23:20.187Z,5.10
2023-06-09T16:25:48.093Z,4.80
2023-06-09T16:28:16.283Z,5.00
2023-06-09T16:30:44.354Z,5.00
2023-06-09T16:33:13.728Z,5.40
2023-06-09T16:35:42.081Z,4.60
2023-06-09T16:38:10.226Z,4.90
2023-06-09T16:40:40.323Z,5.40
2023-06-09T16:43:08.517Z,5.30
2023-06-09T16:45:36.643Z,5.10
2023-06-09T16:48:04.855Z,4.40
2023-06-09T16:50:32.985Z,4.50
2023-06-09T16:53:01.265Z,4.60
2023-06-09T16:55:29.579Z,4.60
2023-06-09T16:57:58.151Z,4.20
2023-06-09T17:00:26.414Z,4.50
2023-06-09T17:02:56.354Z,5.00
2023-06-09T17:05:26.317Z,5.00
2023-06-09T17:07:54.360Z,4.50
2023-06-09T17:10:23.321Z,4.80
2023-06-09T17:12:51.550Z,4.60
2023-06-09T17:15:19.764Z,4.40
2023-06-09T17:17:47.815Z,4.30
2023-06-09T17:20:15.883Z,4.40
2023-06-09T17:22:44.251Z,5.40
2023-06-09T17:25:12.784Z,4.70
2023-06-09T17:27:41.059Z,4.70
2023-06-09T17:30:14.026Z,4.40
2023-06-09T17:32:44.199Z,4.80
2023-06-09T17:35:12.742Z,5.00
2023-06-09T17:37:41.745Z,4.50
2023-06-09T17:40:11.300Z,4.30
2023-06-09T17:42:39.373Z,4.90
2023-06-09T17:45:09.145Z,4.90
2023-06-09T17:47:38.130Z,4.30
2023-06-09T17:50:07.240Z,4.70
2023-06-09T17:52:35.760Z,5.40
2023-06-09T17:55:07.504Z,5.00
2023-06-09T17:57:36.088Z,4.40
2023-06-09T18:00:06.414Z,4.70
2023-06-09T18:02:37.940Z,5.20
2023-06-09T18:05:07.184Z,5.10
2023-06-09T18:07:35.642Z,5.00
2023-06-09T18:10:06.351Z,5.00
2023-06-09T18:12:34.894Z,5.40
2023-06-09T18:15:03.238Z,5.70
2023-06-09T18:17:33.531Z,4.30
2023-06-09T18:20:02.200Z,4.80
2023-06-09T18:22:33.725Z,4.90
2023-06-09T18:25:01.739Z,3.80
2023-06-09T18:27:30.911Z,5.70
2023-06-09T18:29:59.054Z,4.60
2023-06-09T18:32:27.560Z,4.60
2023-06-09T18:34:55.758Z,4.60
2023-06-09T18:37:23.884Z,4.70
2023-06-09T18:39:51.915Z,4.60
2023-06-09T18:42:19.952Z,4.30
2023-06-09T18:44:48.182Z,3.70
2023-06-09T18:47:17.700Z,4.70
2023-06-09T18:49:46.371Z,4.30
2023-06-09T18:52:15.492Z,3.60
2023-06-09T18:54:43.540Z,4.20
2023-06-09T18:57:11.688Z,4.40
2023-06-09T18:59:39.791Z,4.00
2023-06-09T19:02:08.535Z,4.60
2023-06-09T19:04:36.718Z,4.00
2023-06-09T19:07:05.020Z,4.70
2023-06-09T19:09:33.406Z,4.90
2023-06-09T19:12:01.430Z,4.60
2023-06-09T19:14:29.346Z,4.60
2023-06-09T19:16:57.480Z,5.10
2023-06-09T19:19:25.634Z,4.50
2023-06-09T19:21:55.358Z,5.20
2023-06-09T19:24:23.533Z,4.90
2023-06-09T19:26:51.622Z,4.40
2023-06-09T19:29:19.702Z,5.20
2023-06-09T19:31:47.779Z,5.60
2023-06-09T19:34:15.859Z,5.30
2023-06-09T19:36:43.892Z,5.80
2023-06-09T19:39:11.931Z,5.20
2023-06-09T19:41:39.953Z,4.90
2023-06-09T19:44:08.094Z,4.60
2023-06-09T19:46:36.415Z,4.30
2023-06-09T19:49:06.639Z,4.80
2023-06-09T19:51:34.814Z,4.50
2023-06-09T19:54:04.961Z,5.30
2023-06-09T19:56:33.503Z,4.50
2023-06-09T19:59:06.988Z,4.50
2023-06-09T20:01:35.519Z,4.90
2023-06-09T20:04:04.489Z,5.30
2023-06-09T20:06:32.530Z,4.70
2023-06-09T20:09:00.684Z,4.20
2023-06-09T20:11:28.633Z,4.30
2023-06-09T20:13:56.766Z,5.00
2023-06-09T20:16:24.914Z,5.30
2023-06-09T20:18:52.907Z,4.70
2023-06-09T20:21:23.537Z,4.40
2023-06-09T20:23:52.200Z,4.70
2023-06-09T20:26:20.568Z,5.10
2023-06-09T20:28:48.752Z,4.70
2023-06-09T20:31:17.583Z,4.40
2023-06-09T20:33:46.288Z,4.00
2023-06-09T20:36:17.243Z,3.70
2023-06-09T20:38:45.325Z,3.50
2023-06-09T20:41:13.502Z,4.60
2023-06-09T20:43:41.791Z,4.60
2023-06-09T20:46:11.041Z,5.00
2023-06-09T20:48:39.372Z,4.10
2023-06-09T20:51:07.420Z,3.90
2023-06-09T20:53:37.371Z,3.90
2023-06-09T20:56:05.746Z,4.20
2023-06-09T20:58:33.795Z,3.30
2023-06-09T21:01:01.990Z,3.90
2023-06-09T21:03:37.135Z,3.60
2023-06-09T21:06:05.386Z,3.90
2023-06-09T21:08:34.280Z,3.80
2023-06-09T21:11:02.322Z,4.00
2023-06-09T21:13:38.778Z,3.50
2023-06-09T21:16:07.697Z,4.50
2023-06-09T21:18:36.043Z,3.90
2023-06-09T21:21:04.173Z,4.20
2023-06-09T21:23:32.366Z,3.70
2023-06-09T21:26:00.386Z,4.30
2023-06-09T21:28:28.444Z,3.30
2023-06-09T21:31:01.544Z,3.70
2023-06-09T21:33:29.894Z,4.10
2023-06-09T21:35:57.979Z,3.70
2023-06-09T21:38:26.104Z,3.50
2023-06-09T21:40:54.206Z,3.80
2023-06-09T21:43:22.238Z,3.10
2023-06-09T21:45:50.336Z,4.00
2023-06-09T21:48:18.900Z,4.20
2023-06-09T21:50:47.812Z,4.40
2023-06-09T21:53:15.932Z,3.90
2023-06-09T21:55:45.761Z,4.10
2023-06-09T21:58:13.827Z,3.90
2023-06-09T22:00:41.752Z,4.00
2023-06-09T22:03:10.903Z,4.00
2023-06-09T22:05:39.154Z,3.60
2023-06-09T22:08:07.121Z,4.20
2023-06-09T22:10:36.793Z,4.00
2023-06-09T22:13:04.807Z,3.90
2023-06-09T22:15:32.905Z,3.50
2023-06-09T22:18:01.347Z,3.80
2023-06-09T22:20:29.419Z,4.50
2023-06-09T22:22:57.445Z,3.40
2023-06-09T22:25:25.666Z,3.90
2023-06-09T22:27:53.685Z,4.10
2023-06-09T22:30:21.649Z,3.90
2023-06-09T22:32:49.754Z,4.60
2023-06-09T22:35:18.314Z,4.00
2023-06-09T22:37:46.376Z,3.80
2023-06-09T22:40:14.373Z,3.80
2023-06-09T22:42:42.492Z,3.70
2023-06-09T22:45:11.769Z,4.50
2023-06-09T22:47:42.523Z,4.20
2023-06-09T22:50:12.887Z,4.40
2023-06-09T22:52:46.344Z,4.00
2023-06-09T22:55:15.804Z,4.00
2023-06-09T22:57:51.318Z,4.20
2023-06-09T23:00:23.360Z,4.10
2023-06-09T23:02:52.698Z,3.50
2023-06-09T23:05:28.651Z,3.70
2023-06-09T23:07:57.014Z,4.10
2023-06-09T23:10:25.654Z,3.80
2023-06-09T23:12:53.761Z,4.10
2023-06-09T23:15:24.082Z,3.60
2023-06-09T23:17:53.804Z,3.60
2023-06-09T23:20:22.901Z,3.70
2023-06-09T23:22:54.040Z,4.40
2023-06-09T23:25:23.441Z,4.70
2023-06-09T23:27:51.743Z,4.40
2023-06-09T23:30:19.799Z,4.00
2023-06-09T23:32:47.947Z,4.00
2023-06-09T23:35:18.243Z,4.10
2023-06-09T23:37:47.111Z,4.20
2023-06-09T23:40:15.473Z,4.40
2023-06-09T23:42:43.511Z,3.40
2023-06-09T23:45:12.096Z,3.90
2023-06-09T23:47:40.624Z,4.00
2023-06-09T23:50:09.152Z,4.20
2023-06-09T23:52:37.388Z,4.90
2023-06-09T23:55:06.196Z,3.80
2023-06-09T23:57:34.625Z,4.00
